sensor_id;sensor_type;location;lat;lon;timestamp;P1;P2;P0
43479;PMS5003;29067;35.492;-97.520;2023-08-17T00:00:44;19;19;
43479;PMS5003;29067;35.492;-97.520;2023-08-17T00:03:12;17;17;
43479;PMS5003;29067;35.492;-97.520;2023-08-17T00:05:41;17;16;
43479;PMS5003;29067;35.492;-97.520;2023-08-17T00:08:10;16;16;
43479;PMS5003;29067;35.492;-97.520;2023-08-17T00:10:38;16;14;
43479;PMS5003;29067;35.492;-97.520;2023-08-17T00:13:06;18;18;
43479;PMS5003;29067;35.492;-97.520;2023-08-17T00:15:35;13;13;
43479;PMS5003;29067;35.492;-97.520;2023-08-17T00:18:03;12;12;
43479;PMS5003;29067;35.492;-97.520;2023-08-17T00:20:31;12;12;
43479;PMS5003;29067;35.492;-97.520;2023-08-17T00:22:59;13;13;
43479;PMS5003;29067;35.492;-97.520;2023-08-17T00:25:28;14;14;
43479;PMS5003;29067;35.492;-97.520;2023-08-17T00:27:56;13;12;
43479;PMS5003;29067;35.492;-97.520;2023-08-17T00:30:28;13;12;
43479;PMS5003;29067;35.492;-97.520;2023-08-17T00:32:56;10;10;
43479;PMS5003;29067;35.492;-97.520;2023-08-17T00:35:24;12;11;
43479;PMS5003;29067;35.492;-97.520;2023-08-17T00:37:52;10;10;
43479;PMS5003;29067;35.492;-97.520;2023-08-17T00:40:21;9;9;
43479;PMS5003;29067;35.492;-97.520;2023-08-17T00:42:49;10;10;
43479;PMS5003;29067;35.492;-97.520;2023-08-17T00:45:17;11;11;
43479;PMS5003;29067;35.492;-97.520;2023-08-17T00:47:45;12;11;
43479;PMS5003;29067;35.492;-97.520;2023-08-17T00:50:14;8;8;
43479;PMS5003;29067;35.492;-97.520;2023-08-17T00:52:42;12;12;
43479;PMS5003;29067;35.492;-97.520;2023-08-17T00:55:10;13;13;
43479;PMS5003;29067;35.492;-97.520;2023-08-17T00:57:39;11;11;
43479;PMS5003;29067;35.492;-97.520;2023-08-17T01:00:07;12;12;
43479;PMS5003;29067;35.492;-97.520;2023-08-17T01:02:38;14;14;
43479;PMS5003;29067;35.492;-97.520;2023-08-17T01:05:06;12;12;
43479;PMS5003;29067;35.492;-97.520;2023-08-17T01:07:36;13;12;
43479;PMS5003;29067;35.492;-97.520;2023-08-17T01:10:04;16;15;
43479;PMS5003;29067;35.492;-97.520;2023-08-17T01:12:36;16;16;
43479;PMS5003;29067;35.492;-97.520;2023-08-17T01:15:10;16;16;
43479;PMS5003;29067;35.492;-97.520;2023-08-17T01:17:43;16;15;
43479;PMS5003;29067;35.492;-97.520;2023-08-17T01:20:14;15;14;
43479;PMS5003;29067;35.492;-97.520;2023-08-17T01:22:45;18;18;
43479;PMS5003;29067;35.492;-97.520;2023-08-17T01:25:18;16;16;
43479;PMS5003;29067;35.492;-97.520;2023-08-17T01:27:47;14;13;
43479;PMS5003;29067;35.492;-97.520;2023-08-17T01:30:15;13;12;
43479;PMS5003;29067;35.492;-97.520;2023-08-17T01:32:48;11;10;
43479;PMS5003;29067;35.492;-97.520;2023-08-17T01:35:24;9;9;
43479;PMS5003;29067;35.492;-97.520;2023-08-17T01:37:58;9;9;
43479;PMS5003;29067;35.492;-97.520;2023-08-17T01:40:29;10;10;
43479;PMS5003;29067;35.492;-97.520;2023-08-17T01:42:59;7;6;
43479;PMS5003;29067;35.492;-97.520;2023-08-17T01:45:28;9;9;
43479;PMS5003;29067;35.492;-97.520;2023-08-17T01:47:57;8;8;
43479;PMS5003;29067;35.492;-97.520;2023-08-17T01:50:25;7;7;
43479;PMS5003;29067;35.492;-97.520;2023-08-17T01:52:53;8;8;
43479;PMS5003;29067;35.492;-97.520;2023-08-17T01:55:22;6;6;
43479;PMS5003;29067;35.492;-97.520;2023-08-17T01:57:50;8;8;
43479;PMS5003;29067;35.492;-97.520;2023-08-17T02:00:18;6;6;
43479;PMS5003;29067;35.492;-97.520;2023-08-17T02:02:47;9;9;
43479;PMS5003;29067;35.492;-97.520;2023-08-17T02:05:15;8;8;
43479;PMS5003;29067;35.492;-97.520;2023-08-17T02:07:43;6;6;
43479;PMS5003;29067;35.492;-97.520;2023-08-17T02:10:11;6;6;
43479;PMS5003;29067;35.492;-97.520;2023-08-17T02:12:40;6;6;
43479;PMS5003;29067;35.492;-97.520;2023-08-17T02:15:08;6;6;
43479;PMS5003;29067;35.492;-97.520;2023-08-17T02:17:36;7;7;
43479;PMS5003;29067;35.492;-97.520;2023-08-17T02:20:05;5;5;
43479;PMS5003;29067;35.492;-97.520;2023-08-17T02:22:34;7;7;
43479;PMS5003;29067;35.492;-97.520;2023-08-17T02:25:02;6;6;
43479;PMS5003;29067;35.492;-97.520;2023-08-17T02:27:31;8;8;
43479;PMS5003;29067;35.492;-97.520;2023-08-17T02:30:00;9;8;
43479;PMS5003;29067;35.492;-97.520;2023-08-17T02:32:28;5;5;
43479;PMS5003;29067;35.492;-97.520;2023-08-17T02:34:57;9;9;
43479;PMS5003;29067;35.492;-97.520;2023-08-17T02:37:25;9;8;
43479;PMS5003;29067;35.492;-97.520;2023-08-17T02:39:54;8;7;
43479;PMS5003;29067;35.492;-97.520;2023-08-17T02:42:22;8;8;
43479;PMS5003;29067;35.492;-97.520;2023-08-17T02:44:50;6;6;
43479;PMS5003;29067;35.492;-97.520;2023-08-17T02:47:19;8;7;
43479;PMS5003;29067;35.492;-97.520;2023-08-17T02:49:47;6;6;
43479;PMS5003;29067;35.492;-97.520;2023-08-17T02:52:15;6;6;
43479;PMS5003;29067;35.492;-97.520;2023-08-17T02:54:44;7;7;
43479;PMS5003;29067;35.492;-97.520;2023-08-17T02:57:13;5;4;
43479;PMS5003;29067;35.492;-97.520;2023-08-17T02:59:41;6;6;
43479;PMS5003;29067;35.492;-97.520;2023-08-17T03:02:09;6;6;
43479;PMS5003;29067;35.492;-97.520;2023-08-17T03:04:38;6;6;
43479;PMS5003;29067;35.492;-97.520;2023-08-17T03:07:07;7;6;
43479;PMS5003;29067;35.492;-97.520;2023-08-17T03:09:35;6;6;
43479;PMS5003;29067;35.492;-97.520;2023-08-17T03:12:03;8;7;
43479;PMS5003;29067;35.492;-97.520;2023-08-17T03:14:31;6;6;
43479;PMS5003;29067;35.492;-97.520;2023-08-17T03:16:59;6;6;
43479;PMS5003;29067;35.492;-97.520;2023-08-17T03:19:28;4;4;
43479;PMS5003;29067;35.492;-97.520;2023-08-17T03:21:56;6;6;
43479;PMS5003;29067;35.492;-97.520;2023-08-17T03:24:25;7;7;
43479;PMS5003;29067;35.492;-97.520;2023-08-17T03:26:54;6;6;
43479;PMS5003;29067;35.492;-97.520;2023-08-17T03:29:22;6;6;
43479;PMS5003;29067;35.492;-97.520;2023-08-17T03:31:50;7;7;
43479;PMS5003;29067;35.492;-97.520;2023-08-17T03:34:19;7;6;
43479;PMS5003;29067;35.492;-97.520;2023-08-17T03:36:47;10;10;
43479;PMS5003;29067;35.492;-97.520;2023-08-17T03:39:16;20;20;
43479;PMS5003;29067;35.492;-97.520;2023-08-17T03:41:44;25;25;
43479;PMS5003;29067;35.492;-97.520;2023-08-17T03:44:12;14;14;
43479;PMS5003;29067;35.492;-97.520;2023-08-17T03:46:40;65;65;
43479;PMS5003;29067;35.492;-97.520;2023-08-17T03:49:07;73;73;
43479;PMS5003;29067;35.492;-97.520;2023-08-17T03:51:36;63;62;
43479;PMS5003;29067;35.492;-97.520;2023-08-17T03:54:04;71;71;
43479;PMS5003;29067;35.492;-97.520;2023-08-17T03:56:32;59;59;
43479;PMS5003;29067;35.492;-97.520;2023-08-17T03:59:00;19;18;
43479;PMS5003;29067;35.492;-97.520;2023-08-17T04:01:28;12;11;
43479;PMS5003;29067;35.492;-97.520;2023-08-17T04:03:57;6;6;
43479;PMS5003;29067;35.492;-97.520;2023-08-17T04:06:25;8;8;
43479;PMS5003;29067;35.492;-97.520;2023-08-17T04:08:53;7;7;
43479;PMS5003;29067;35.492;-97.520;2023-08-17T04:11:23;8;7;
43479;PMS5003;29067;35.492;-97.520;2023-08-17T04:13:51;5;4;
43479;PMS5003;29067;35.492;-97.520;2023-08-17T04:16:19;7;6;
43479;PMS5003;29067;35.492;-97.520;2023-08-17T04:18:48;8;8;
43479;PMS5003;29067;35.492;-97.520;2023-08-17T04:21:16;6;6;
43479;PMS5003;29067;35.492;-97.520;2023-08-17T04:23:45;7;6;
43479;PMS5003;29067;35.492;-97.520;2023-08-17T04:26:13;8;8;
43479;PMS5003;29067;35.492;-97.520;2023-08-17T04:28:41;7;7;
43479;PMS5003;29067;35.492;-97.520;2023-08-17T04:31:10;5;5;
43479;PMS5003;29067;35.492;-97.520;2023-08-17T04:33:39;7;6;
43479;PMS5003;29067;35.492;-97.520;2023-08-17T04:36:07;7;7;
43479;PMS5003;29067;35.492;-97.520;2023-08-17T04:38:36;8;6;
43479;PMS5003;29067;35.492;-97.520;2023-08-17T04:41:04;6;6;
43479;PMS5003;29067;35.492;-97.520;2023-08-17T04:43:32;6;6;
43479;PMS5003;29067;35.492;-97.520;2023-08-17T04:46:01;7;7;
43479;PMS5003;29067;35.492;-97.520;2023-08-17T04:48:29;5;5;
43479;PMS5003;29067;35.492;-97.520;2023-08-17T04:50:57;8;7;
43479;PMS5003;29067;35.492;-97.520;2023-08-17T04:53:26;8;7;
43479;PMS5003;29067;35.492;-97.520;2023-08-17T04:55:54;6;6;
43479;PMS5003;29067;35.492;-97.520;2023-08-17T04:58:22;6;6;
43479;PMS5003;29067;35.492;-97.520;2023-08-17T05:00:51;9;8;
43479;PMS5003;29067;35.492;-97.520;2023-08-17T05:03:19;7;7;
43479;PMS5003;29067;35.492;-97.520;2023-08-17T05:05:48;5;5;
43479;PMS5003;29067;35.492;-97.520;2023-08-17T05:08:16;7;6;
43479;PMS5003;29067;35.492;-97.520;2023-08-17T05:10:44;5;5;
43479;PMS5003;29067;35.492;-97.520;2023-08-17T05:13:13;5;5;
43479;PMS5003;29067;35.492;-97.520;2023-08-17T05:15:42;7;7;
43479;PMS5003;29067;35.492;-97.520;2023-08-17T05:18:10;7;7;
43479;PMS5003;29067;35.492;-97.520;2023-08-17T05:20:39;6;6;
43479;PMS5003;29067;35.492;-97.520;2023-08-17T05:23:07;7;6;
43479;PMS5003;29067;35.492;-97.520;2023-08-17T05:25:35;6;6;
43479;PMS5003;29067;35.492;-97.520;2023-08-17T05:28:04;6;6;
43479;PMS5003;29067;35.492;-97.520;2023-08-17T05:30:32;7;6;
43479;PMS5003;29067;35.492;-97.520;2023-08-17T05:33:00;5;5;
43479;PMS5003;29067;35.492;-97.520;2023-08-17T05:35:29;9;8;
43479;PMS5003;29067;35.492;-97.520;2023-08-17T05:37:57;7;6;
43479;PMS5003;29067;35.492;-97.520;2023-08-17T05:40:26;6;6;
43479;PMS5003;29067;35.492;-97.520;2023-08-17T05:42:56;5;5;
43479;PMS5003;29067;35.492;-97.520;2023-08-17T05:45:24;5;5;
43479;PMS5003;29067;35.492;-97.520;2023-08-17T05:47:53;5;4;
43479;PMS5003;29067;35.492;-97.520;2023-08-17T05:50:21;7;7;
43479;PMS5003;29067;35.492;-97.520;2023-08-17T05:52:49;5;5;
43479;PMS5003;29067;35.492;-97.520;2023-08-17T05:55:17;5;5;
43479;PMS5003;29067;35.492;-97.520;2023-08-17T05:57:46;6;6;
43479;PMS5003;29067;35.492;-97.520;2023-08-17T06:00:14;5;5;
43479;PMS5003;29067;35.492;-97.520;2023-08-17T06:02:43;6;5;
43479;PMS5003;29067;35.492;-97.520;2023-08-17T06:05:11;6;6;
43479;PMS5003;29067;35.492;-97.520;2023-08-17T06:07:39;5;5;
43479;PMS5003;29067;35.492;-97.520;2023-08-17T06:10:08;4;4;
43479;PMS5003;29067;35.492;-97.520;2023-08-17T06:12:37;6;5;
43479;PMS5003;29067;35.492;-97.520;2023-08-17T06:15:06;5;5;
43479;PMS5003;29067;35.492;-97.520;2023-08-17T06:17:35;5;5;
43479;PMS5003;29067;35.492;-97.520;2023-08-17T06:20:04;5;5;
43479;PMS5003;29067;35.492;-97.520;2023-08-17T06:22:33;6;6;
43479;PMS5003;29067;35.492;-97.520;2023-08-17T06:25:01;5;4;
43479;PMS5003;29067;35.492;-97.520;2023-08-17T06:27:30;5;5;
43479;PMS5003;29067;35.492;-97.520;2023-08-17T06:29:58;6;6;
43479;PMS5003;29067;35.492;-97.520;2023-08-17T06:32:26;4;4;
43479;PMS5003;29067;35.492;-97.520;2023-08-17T06:34:55;5;5;
43479;PMS5003;29067;35.492;-97.520;2023-08-17T06:37:23;4;4;
43479;PMS5003;29067;35.492;-97.520;2023-08-17T06:39:52;4;3;
43479;PMS5003;29067;35.492;-97.520;2023-08-17T06:42:20;4;4;
43479;PMS5003;29067;35.492;-97.520;2023-08-17T06:44:48;4;4;
43479;PMS5003;29067;35.492;-97.520;2023-08-17T06:47:17;4;4;
43479;PMS5003;29067;35.492;-97.520;2023-08-17T06:49:45;3;3;
43479;PMS5003;29067;35.492;-97.520;2023-08-17T06:52:13;4;4;
43479;PMS5003;29067;35.492;-97.520;2023-08-17T06:54:41;4;4;
43479;PMS5003;29067;35.492;-97.520;2023-08-17T06:57:09;4;4;
43479;PMS5003;29067;35.492;-97.520;2023-08-17T06:59:38;4;4;
43479;PMS5003;29067;35.492;-97.520;2023-08-17T07:02:06;2;2;
43479;PMS5003;29067;35.492;-97.520;2023-08-17T07:04:35;3;3;
43479;PMS5003;29067;35.492;-97.520;2023-08-17T07:07:03;4;4;
43479;PMS5003;29067;35.492;-97.520;2023-08-17T07:09:31;4;4;
43479;PMS5003;29067;35.492;-97.520;2023-08-17T07:12:00;4;4;
43479;PMS5003;29067;35.492;-97.520;2023-08-17T07:14:28;4;4;
43479;PMS5003;29067;35.492;-97.520;2023-08-17T07:16:58;6;5;
43479;PMS5003;29067;35.492;-97.520;2023-08-17T07:19:26;4;4;
43479;PMS5003;29067;35.492;-97.520;2023-08-17T07:21:54;3;3;
43479;PMS5003;29067;35.492;-97.520;2023-08-17T07:24:22;5;5;
43479;PMS5003;29067;35.492;-97.520;2023-08-17T07:26:50;4;4;
43479;PMS5003;29067;35.492;-97.520;2023-08-17T07:29:18;5;4;
43479;PMS5003;29067;35.492;-97.520;2023-08-17T07:31:47;4;4;
43479;PMS5003;29067;35.492;-97.520;2023-08-17T07:34:15;3;3;
43479;PMS5003;29067;35.492;-97.520;2023-08-17T07:36:44;4;4;
43479;PMS5003;29067;35.492;-97.520;2023-08-17T07:39:12;3;3;
43479;PMS5003;29067;35.492;-97.520;2023-08-17T07:41:40;4;4;
43479;PMS5003;29067;35.492;-97.520;2023-08-17T07:44:09;4;4;
43479;PMS5003;29067;35.492;-97.520;2023-08-17T07:46:37;4;4;
43479;PMS5003;29067;35.492;-97.520;2023-08-17T07:49:05;2;2;
43479;PMS5003;29067;35.492;-97.520;2023-08-17T07:51:34;5;4;
43479;PMS5003;29067;35.492;-97.520;2023-08-17T07:54:02;4;3;
43479;PMS5003;29067;35.492;-97.520;2023-08-17T07:56:31;4;4;
43479;PMS5003;29067;35.492;-97.520;2023-08-17T07:58:59;4;4;
43479;PMS5003;29067;35.492;-97.520;2023-08-17T08:01:27;5;3;
43479;PMS5003;29067;35.492;-97.520;2023-08-17T08:03:56;3;3;
43479;PMS5003;29067;35.492;-97.520;2023-08-17T08:06:24;4;4;
43479;PMS5003;29067;35.492;-97.520;2023-08-17T08:08:53;4;4;
43479;PMS5003;29067;35.492;-97.520;2023-08-17T08:11:21;3;3;
43479;PMS5003;29067;35.492;-97.520;2023-08-17T08:13:49;3;3;
43479;PMS5003;29067;35.492;-97.520;2023-08-17T08:16:18;5;4;
43479;PMS5003;29067;35.492;-97.520;2023-08-17T08:18:47;5;4;
43479;PMS5003;29067;35.492;-97.520;2023-08-17T08:21:15;6;4;
43479;PMS5003;29067;35.492;-97.520;2023-08-17T08:23:44;5;5;
43479;PMS5003;29067;35.492;-97.520;2023-08-17T08:26:12;4;4;
43479;PMS5003;29067;35.492;-97.520;2023-08-17T08:28:41;5;5;
43479;PMS5003;29067;35.492;-97.520;2023-08-17T08:31:09;3;3;
43479;PMS5003;29067;35.492;-97.520;2023-08-17T08:33:37;5;5;
43479;PMS5003;29067;35.492;-97.520;2023-08-17T08:36:06;4;4;
43479;PMS5003;29067;35.492;-97.520;2023-08-17T08:38:34;5;5;
43479;PMS5003;29067;35.492;-97.520;2023-08-17T08:41:03;7;6;
43479;PMS5003;29067;35.492;-97.520;2023-08-17T08:43:32;5;5;
43479;PMS5003;29067;35.492;-97.520;2023-08-17T08:46:00;6;5;
43479;PMS5003;29067;35.492;-97.520;2023-08-17T08:48:29;4;4;
43479;PMS5003;29067;35.492;-97.520;2023-08-17T08:51:00;5;4;
43479;PMS5003;29067;35.492;-97.520;2023-08-17T08:53:31;4;4;
43479;PMS5003;29067;35.492;-97.520;2023-08-17T08:56:10;2;2;
43479;PMS5003;29067;35.492;-97.520;2023-08-17T08:58:39;4;4;
43479;PMS5003;29067;35.492;-97.520;2023-08-17T09:01:08;4;4;
43479;PMS5003;29067;35.492;-97.520;2023-08-17T09:03:37;4;4;
43479;PMS5003;29067;35.492;-97.520;2023-08-17T09:06:06;4;4;
43479;PMS5003;29067;35.492;-97.520;2023-08-17T09:08:36;5;4;
43479;PMS5003;29067;35.492;-97.520;2023-08-17T09:11:05;4;4;
43479;PMS5003;29067;35.492;-97.520;2023-08-17T09:13:33;5;4;
43479;PMS5003;29067;35.492;-97.520;2023-08-17T09:16:02;4;4;
43479;PMS5003;29067;35.492;-97.520;2023-08-17T09:18:30;3;3;
43479;PMS5003;29067;35.492;-97.520;2023-08-17T09:21:00;4;4;
43479;PMS5003;29067;35.492;-97.520;2023-08-17T09:23:29;3;3;
43479;PMS5003;29067;35.492;-97.520;2023-08-17T09:25:57;3;3;
43479;PMS5003;29067;35.492;-97.520;2023-08-17T09:28:36;5;5;
43479;PMS5003;29067;35.492;-97.520;2023-08-17T09:31:06;4;4;
43479;PMS5003;29067;35.492;-97.520;2023-08-17T09:33:35;4;4;
43479;PMS5003;29067;35.492;-97.520;2023-08-17T09:36:03;4;4;
43479;PMS5003;29067;35.492;-97.520;2023-08-17T09:38:31;3;3;
43479;PMS5003;29067;35.492;-97.520;2023-08-17T09:41:00;6;4;
43479;PMS5003;29067;35.492;-97.520;2023-08-17T09:43:28;4;4;
43479;PMS5003;29067;35.492;-97.520;2023-08-17T09:45:57;4;4;
43479;PMS5003;29067;35.492;-97.520;2023-08-17T09:48:25;3;3;
43479;PMS5003;29067;35.492;-97.520;2023-08-17T09:50:55;2;2;
43479;PMS5003;29067;35.492;-97.520;2023-08-17T09:53:23;3;3;
43479;PMS5003;29067;35.492;-97.520;2023-08-17T09:55:51;2;2;
43479;PMS5003;29067;35.492;-97.520;2023-08-17T09:58:20;5;5;
43479;PMS5003;29067;35.492;-97.520;2023-08-17T10:00:49;5;4;
43479;PMS5003;29067;35.492;-97.520;2023-08-17T10:03:19;4;4;
43479;PMS5003;29067;35.492;-97.520;2023-08-17T10:05:50;5;4;
43479;PMS5003;29067;35.492;-97.520;2023-08-17T10:08:29;5;4;
43479;PMS5003;29067;35.492;-97.520;2023-08-17T10:11:00;3;3;
43479;PMS5003;29067;35.492;-97.520;2023-08-17T10:13:35;4;4;
43479;PMS5003;29067;35.492;-97.520;2023-08-17T10:16:10;3;3;
43479;PMS5003;29067;35.492;-97.520;2023-08-17T10:18:45;5;4;
43479;PMS5003;29067;35.492;-97.520;2023-08-17T10:21:22;4;4;
43479;PMS5003;29067;35.492;-97.520;2023-08-17T10:23:54;4;4;
43479;PMS5003;29067;35.492;-97.520;2023-08-17T10:26:23;4;4;
43479;PMS5003;29067;35.492;-97.520;2023-08-17T10:28:51;4;4;
43479;PMS5003;29067;35.492;-97.520;2023-08-17T10:31:20;4;4;
43479;PMS5003;29067;35.492;-97.520;2023-08-17T10:33:48;3;3;
43479;PMS5003;29067;35.492;-97.520;2023-08-17T10:36:17;4;4;
43479;PMS5003;29067;35.492;-97.520;2023-08-17T10:38:46;5;5;
43479;PMS5003;29067;35.492;-97.520;2023-08-17T10:41:14;4;4;
43479;PMS5003;29067;35.492;-97.520;2023-08-17T10:43:54;4;4;
43479;PMS5003;29067;35.492;-97.520;2023-08-17T10:46:31;4;4;
43479;PMS5003;29067;35.492;-97.520;2023-08-17T10:49:03;3;3;
43479;PMS5003;29067;35.492;-97.520;2023-08-17T10:51:31;4;4;
43479;PMS5003;29067;35.492;-97.520;2023-08-17T10:54:02;3;3;
43479;PMS5003;29067;35.492;-97.520;2023-08-17T10:56:30;3;2;
43479;PMS5003;29067;35.492;-97.520;2023-08-17T10:58:59;4;4;
43479;PMS5003;29067;35.492;-97.520;2023-08-17T11:03:00;4;4;
43479;PMS5003;29067;35.492;-97.520;2023-08-17T11:05:40;5;5;
43479;PMS5003;29067;35.492;-97.520;2023-08-17T11:08:10;5;4;
43479;PMS5003;29067;35.492;-97.520;2023-08-17T11:10:47;3;3;
43479;PMS5003;29067;35.492;-97.520;2023-08-17T11:13:23;4;4;
43479;PMS5003;29067;35.492;-97.520;2023-08-17T11:15:53;3;2;
43479;PMS5003;29067;35.492;-97.520;2023-08-17T11:18:21;4;4;
43479;PMS5003;29067;35.492;-97.520;2023-08-17T11:20:50;4;4;
43479;PMS5003;29067;35.492;-97.520;2023-08-17T11:23:18;5;5;
43479;PMS5003;29067;35.492;-97.520;2023-08-17T11:25:47;4;4;
43479;PMS5003;29067;35.492;-97.520;2023-08-17T11:28:15;4;4;
43479;PMS5003;29067;35.492;-97.520;2023-08-17T11:30:44;5;5;
43479;PMS5003;29067;35.492;-97.520;2023-08-17T11:33:12;3;3;
43479;PMS5003;29067;35.492;-97.520;2023-08-17T11:35:41;4;3;
43479;PMS5003;29067;35.492;-97.520;2023-08-17T11:38:09;4;4;
43479;PMS5003;29067;35.492;-97.520;2023-08-17T11:40:37;3;3;
43479;PMS5003;29067;35.492;-97.520;2023-08-17T11:43:05;4;4;
43479;PMS5003;29067;35.492;-97.520;2023-08-17T11:45:33;4;4;
43479;PMS5003;29067;35.492;-97.520;2023-08-17T11:48:02;3;3;
43479;PMS5003;29067;35.492;-97.520;2023-08-17T11:50:30;4;4;
43479;PMS5003;29067;35.492;-97.520;2023-08-17T11:52:59;4;4;
43479;PMS5003;29067;35.492;-97.520;2023-08-17T11:55:27;4;4;
43479;PMS5003;29067;35.492;-97.520;2023-08-17T11:57:56;5;4;
43479;PMS5003;29067;35.492;-97.520;2023-08-17T12:00:24;4;4;
43479;PMS5003;29067;35.492;-97.520;2023-08-17T12:02:52;3;3;
43479;PMS5003;29067;35.492;-97.520;2023-08-17T12:05:21;5;4;
43479;PMS5003;29067;35.492;-97.520;2023-08-17T12:07:50;4;4;
43479;PMS5003;29067;35.492;-97.520;2023-08-17T12:10:20;5;4;
43479;PMS5003;29067;35.492;-97.520;2023-08-17T12:12:49;3;3;
43479;PMS5003;29067;35.492;-97.520;2023-08-17T12:15:17;4;4;
43479;PMS5003;29067;35.492;-97.520;2023-08-17T12:17:46;4;4;
43479;PMS5003;29067;35.492;-97.520;2023-08-17T12:20:15;5;5;
43479;PMS5003;29067;35.492;-97.520;2023-08-17T12:22:44;5;4;
43479;PMS5003;29067;35.492;-97.520;2023-08-17T12:25:14;4;4;
43479;PMS5003;29067;35.492;-97.520;2023-08-17T12:27:42;5;5;
43479;PMS5003;29067;35.492;-97.520;2023-08-17T12:30:14;4;4;
43479;PMS5003;29067;35.492;-97.520;2023-08-17T12:32:52;5;4;
43479;PMS5003;29067;35.492;-97.520;2023-08-17T12:35:21;5;5;
43479;PMS5003;29067;35.492;-97.520;2023-08-17T12:37:49;4;4;
43479;PMS5003;29067;35.492;-97.520;2023-08-17T12:40:17;5;5;
43479;PMS5003;29067;35.492;-97.520;2023-08-17T12:42:46;4;4;
43479;PMS5003;29067;35.492;-97.520;2023-08-17T12:45:14;5;5;
43479;PMS5003;29067;35.492;-97.520;2023-08-17T12:47:44;5;5;
43479;PMS5003;29067;35.492;-97.520;2023-08-17T12:50:12;4;3;
43479;PMS5003;29067;35.492;-97.520;2023-08-17T12:52:40;4;4;
43479;PMS5003;29067;35.492;-97.520;2023-08-17T12:55:08;6;6;
43479;PMS5003;29067;35.492;-97.520;2023-08-17T12:57:36;6;5;
43479;PMS5003;29067;35.492;-97.520;2023-08-17T13:00:04;6;6;
43479;PMS5003;29067;35.492;-97.520;2023-08-17T13:02:33;6;6;
43479;PMS5003;29067;35.492;-97.520;2023-08-17T13:05:01;8;8;
43479;PMS5003;29067;35.492;-97.520;2023-08-17T13:07:29;7;7;
43479;PMS5003;29067;35.492;-97.520;2023-08-17T13:09:57;7;7;
43479;PMS5003;29067;35.492;-97.520;2023-08-17T13:12:25;6;6;
43479;PMS5003;29067;35.492;-97.520;2023-08-17T13:14:53;6;6;
43479;PMS5003;29067;35.492;-97.520;2023-08-17T13:17:22;11;10;
43479;PMS5003;29067;35.492;-97.520;2023-08-17T13:19:50;5;5;
43479;PMS5003;29067;35.492;-97.520;2023-08-17T13:22:19;6;6;
43479;PMS5003;29067;35.492;-97.520;2023-08-17T13:24:46;6;6;
43479;PMS5003;29067;35.492;-97.520;2023-08-17T13:27:14;5;5;
43479;PMS5003;29067;35.492;-97.520;2023-08-17T13:29:42;4;4;
43479;PMS5003;29067;35.492;-97.520;2023-08-17T13:32:10;4;4;
43479;PMS5003;29067;35.492;-97.520;2023-08-17T13:34:37;6;5;
43479;PMS5003;29067;35.492;-97.520;2023-08-17T13:37:06;7;6;
43479;PMS5003;29067;35.492;-97.520;2023-08-17T13:39:34;5;5;
43479;PMS5003;29067;35.492;-97.520;2023-08-17T13:42:02;7;7;
43479;PMS5003;29067;35.492;-97.520;2023-08-17T13:44:30;7;7;
43479;PMS5003;29067;35.492;-97.520;2023-08-17T13:46:57;5;5;
43479;PMS5003;29067;35.492;-97.520;2023-08-17T13:49:26;4;4;
43479;PMS5003;29067;35.492;-97.520;2023-08-17T13:51:54;5;5;
43479;PMS5003;29067;35.492;-97.520;2023-08-17T13:54:23;7;6;
43479;PMS5003;29067;35.492;-97.520;2023-08-17T13:56:51;6;6;
43479;PMS5003;29067;35.492;-97.520;2023-08-17T13:59:19;5;5;
43479;PMS5003;29067;35.492;-97.520;2023-08-17T14:01:48;5;5;
43479;PMS5003;29067;35.492;-97.520;2023-08-17T14:04:16;5;5;
43479;PMS5003;29067;35.492;-97.520;2023-08-17T14:06:44;6;6;
43479;PMS5003;29067;35.492;-97.520;2023-08-17T14:09:13;5;5;
43479;PMS5003;29067;35.492;-97.520;2023-08-17T14:11:42;7;7;
43479;PMS5003;29067;35.492;-97.520;2023-08-17T14:14:10;4;4;
43479;PMS5003;29067;35.492;-97.520;2023-08-17T14:16:38;5;5;
43479;PMS5003;29067;35.492;-97.520;2023-08-17T14:19:06;6;6;
43479;PMS5003;29067;35.492;-97.520;2023-08-17T14:21:35;6;6;
43479;PMS5003;29067;35.492;-97.520;2023-08-17T14:24:03;6;6;
43479;PMS5003;29067;35.492;-97.520;2023-08-17T14:26:32;6;6;
43479;PMS5003;29067;35.492;-97.520;2023-08-17T14:29:00;5;5;
43479;PMS5003;29067;35.492;-97.520;2023-08-17T14:31:28;4;4;
43479;PMS5003;29067;35.492;-97.520;2023-08-17T14:33:57;7;6;
43479;PMS5003;29067;35.492;-97.520;2023-08-17T14:36:26;6;6;
43479;PMS5003;29067;35.492;-97.520;2023-08-17T14:38:55;5;5;
43479;PMS5003;29067;35.492;-97.520;2023-08-17T14:41:23;6;6;
43479;PMS5003;29067;35.492;-97.520;2023-08-17T14:43:51;5;5;
43479;PMS5003;29067;35.492;-97.520;2023-08-17T14:46:19;4;4;
43479;PMS5003;29067;35.492;-97.520;2023-08-17T14:48:47;7;7;
43479;PMS5003;29067;35.492;-97.520;2023-08-17T14:51:15;5;5;
43479;PMS5003;29067;35.492;-97.520;2023-08-17T14:53:44;6;6;
43479;PMS5003;29067;35.492;-97.520;2023-08-17T14:56:12;6;6;
43479;PMS5003;29067;35.492;-97.520;2023-08-17T14:58:40;4;4;
43479;PMS5003;29067;35.492;-97.520;2023-08-17T15:01:08;50;49;
43479;PMS5003;29067;35.492;-97.520;2023-08-17T15:03:36;10;10;
43479;PMS5003;29067;35.492;-97.520;2023-08-17T15:06:04;6;6;
43479;PMS5003;29067;35.492;-97.520;2023-08-17T15:08:43;6;6;
43479;PMS5003;29067;35.492;-97.520;2023-08-17T15:11:11;5;5;
43479;PMS5003;29067;35.492;-97.520;2023-08-17T15:13:39;5;4;
43479;PMS5003;29067;35.492;-97.520;2023-08-17T15:16:08;6;6;
43479;PMS5003;29067;35.492;-97.520;2023-08-17T15:18:37;6;5;
43479;PMS5003;29067;35.492;-97.520;2023-08-17T15:21:05;6;6;
43479;PMS5003;29067;35.492;-97.520;2023-08-17T15:23:33;8;6;
43479;PMS5003;29067;35.492;-97.520;2023-08-17T15:26:02;5;5;
43479;PMS5003;29067;35.492;-97.520;2023-08-17T15:28:30;5;5;
43479;PMS5003;29067;35.492;-97.520;2023-08-17T15:31:00;5;5;
43479;PMS5003;29067;35.492;-97.520;2023-08-17T15:33:30;5;5;
43479;PMS5003;29067;35.492;-97.520;2023-08-17T15:35:58;6;6;
43479;PMS5003;29067;35.492;-97.520;2023-08-17T15:38:27;7;7;
43479;PMS5003;29067;35.492;-97.520;2023-08-17T15:40:55;6;5;
43479;PMS5003;29067;35.492;-97.520;2023-08-17T15:43:28;6;6;
43479;PMS5003;29067;35.492;-97.520;2023-08-17T15:45:56;6;6;
43479;PMS5003;29067;35.492;-97.520;2023-08-17T15:48:24;7;5;
43479;PMS5003;29067;35.492;-97.520;2023-08-17T15:50:53;6;6;
43479;PMS5003;29067;35.492;-97.520;2023-08-17T15:53:26;5;5;
43479;PMS5003;29067;35.492;-97.520;2023-08-17T15:55:54;40;40;
43479;PMS5003;29067;35.492;-97.520;2023-08-17T15:58:22;12;10;
43479;PMS5003;29067;35.492;-97.520;2023-08-17T16:00:50;15;15;
43479;PMS5003;29067;35.492;-97.520;2023-08-17T16:03:18;10;10;
43479;PMS5003;29067;35.492;-97.520;2023-08-17T16:05:47;10;9;
43479;PMS5003;29067;35.492;-97.520;2023-08-17T16:08:15;6;6;
43479;PMS5003;29067;35.492;-97.520;2023-08-17T16:10:43;7;7;
43479;PMS5003;29067;35.492;-97.520;2023-08-17T16:13:16;6;6;
43479;PMS5003;29067;35.492;-97.520;2023-08-17T16:15:44;8;7;
43479;PMS5003;29067;35.492;-97.520;2023-08-17T16:18:12;6;6;
43479;PMS5003;29067;35.492;-97.520;2023-08-17T16:20:41;6;6;
43479;PMS5003;29067;35.492;-97.520;2023-08-17T16:23:09;6;5;
43479;PMS5003;29067;35.492;-97.520;2023-08-17T16:25:37;7;6;